createdAt,value
2022-09-01T00:03:02.857Z,5.00
2022-09-01T00:06:30.806Z,4.90
2022-09-01T00:09:46.051Z,5.20
2022-09-01T00:13:13.821Z,5.00
2022-09-01T00:16:35.628Z,5.40
2022-09-01T00:19:57.246Z,5.00
2022-09-01T00:23:18.626Z,5.00
2022-09-01T00:26:40.086Z,4.90
2022-09-01T00:30:09.734Z,5.00
2022-09-01T00:33:37.712Z,5.10
2022-09-01T00:37:13.677Z,5.00
2022-09-01T00:40:35.659Z,4.80
2022-09-01T00:44:06.736Z,4.90
2022-09-01T00:47:21.313Z,4.80
2022-09-01T00:50:44.358Z,5.00
2022-09-01T00:54:13.757Z,4.80
2022-09-01T00:57:29.710Z,4.90
2022-09-01T01:00:59.804Z,5.10
2022-09-01T01:04:16.082Z,4.80
2022-09-01T01:07:47.696Z,4.80
2022-09-01T01:11:06.535Z,4.90
2022-09-01T01:14:35.863Z,4.70
2022-09-01T01:18:10.777Z,4.50
2022-09-01T01:22:14.889Z,4.50
2022-09-01T01:25:53.806Z,4.80
2022-09-01T01:29:23.864Z,4.80
2022-09-01T01:32:47.918Z,4.30
2022-09-01T01:36:20.242Z,3.50
2022-09-01T01:39:54.875Z,3.50
2022-09-01T01:43:23.287Z,3.10
2022-09-01T01:47:01.987Z,2.50
2022-09-01T01:50:41.842Z,2.70
2022-09-01T01:54:17.966Z,2.60
2022-09-01T01:57:57.359Z,2.50
2022-09-01T02:01:26.921Z,2.60
2022-09-01T02:05:02.874Z,2.50
2022-09-01T02:08:40.989Z,2.50
2022-09-01T02:12:16.004Z,2.40
2022-09-01T02:15:51.098Z,2.70
2022-09-01T02:19:27.905Z,2.80
2022-09-01T02:23:04.049Z,2.50
2022-09-01T02:26:38.909Z,2.60
2022-09-01T02:30:07.068Z,2.70
2022-09-01T02:33:42.953Z,2.50
2022-09-01T02:37:18.023Z,2.70
2022-09-01T02:40:53.037Z,3.00
2022-09-01T02:44:22.345Z,2.50
2022-09-01T02:47:52.003Z,2.90
2022-09-01T02:51:16.373Z,2.50
2022-09-01T02:54:40.038Z,2.40
2022-09-01T02:58:02.731Z,2.30
2022-09-01T03:01:29.215Z,2.60
2022-09-01T03:04:50.706Z,2.60
2022-09-01T03:08:23.049Z,2.50
2022-09-01T03:12:00.117Z,3.10
2022-09-01T03:15:21.933Z,2.70
2022-09-01T03:18:59.251Z,2.40
2022-09-01T03:22:36.087Z,2.60
2022-09-01T03:26:12.167Z,2.60
2022-09-01T03:29:47.072Z,2.30
2022-09-01T03:33:18.181Z,2.30
2022-09-01T03:36:50.534Z,2.40
2022-09-01T03:40:15.262Z,2.40
2022-09-01T03:43:37.399Z,2.20
2022-09-01T03:47:08.228Z,2.50
2022-09-01T03:50:45.197Z,2.60
2022-09-01T03:54:20.483Z,2.50
2022-09-01T03:57:55.207Z,2.60
2022-09-01T04:01:24.425Z,2.60
2022-09-01T04:04:45.482Z,2.10
2022-09-01T04:08:23.230Z,2.30
2022-09-01T04:11:58.192Z,2.50
2022-09-01T04:15:34.286Z,3.00
2022-09-01T04:19:02.513Z,2.50
2022-09-01T04:22:23.626Z,2.20
2022-09-01T04:25:46.450Z,2.40
2022-09-01T04:29:09.325Z,2.10
2022-09-01T04:32:31.467Z,2.30
2022-09-01T04:35:54.919Z,2.30
2022-09-01T04:39:24.244Z,2.30
2022-09-01T04:42:59.282Z,2.40
2022-09-01T04:46:36.391Z,2.00
2022-09-01T04:50:46.993Z,2.30
2022-09-01T04:54:24.288Z,2.60
2022-09-01T04:58:01.304Z,2.40
2022-09-01T05:01:49.402Z,2.50
2022-09-01T05:05:27.370Z,2.30
2022-09-01T05:09:03.425Z,2.30
2022-09-01T05:12:38.492Z,2.40
2022-09-01T05:16:26.381Z,2.30
2022-09-01T05:19:57.346Z,2.20
2022-09-01T05:23:20.323Z,2.70
2022-09-01T05:26:47.534Z,2.40
2022-09-01T05:30:09.390Z,2.40
2022-09-01T05:33:31.432Z,2.60
2022-09-01T05:36:56.239Z,2.10
2022-09-01T05:40:23.125Z,2.30
2022-09-01T05:44:01.065Z,2.10
2022-09-01T05:47:35.620Z,2.30
2022-09-01T05:51:17.669Z,2.50
2022-09-01T05:55:03.492Z,2.30
2022-09-01T06:02:35.570Z,2.20
2022-09-01T06:06:09.493Z,2.30
2022-09-01T06:09:31.287Z,2.30
2022-09-01T06:12:53.991Z,2.40
2022-09-01T06:16:30.576Z,2.60
2022-09-01T06:19:59.520Z,2.60
2022-09-01T06:23:22.889Z,2.60
2022-09-01T06:26:46.533Z,2.80
2022-09-01T06:30:27.686Z,2.30
2022-09-01T06:33:57.538Z,2.60
2022-09-01T06:37:32.581Z,2.70
2022-09-01T06:41:19.570Z,2.70
2022-09-01T06:44:54.634Z,2.30
2022-09-01T06:48:17.961Z,2.20
2022-09-01T06:51:45.574Z,2.20
2022-09-01T06:55:21.666Z,2.30
2022-09-01T06:58:58.579Z,2.50
2022-09-01T07:02:34.648Z,2.10
2022-09-01T07:06:03.643Z,2.40
2022-09-01T07:09:38.975Z,2.30
2022-09-01T07:13:05.684Z,2.30
2022-09-01T07:16:41.881Z,2.50
2022-09-01T07:24:08.771Z,3.00
2022-09-01T07:27:36.024Z,2.80
2022-09-01T07:34:46.297Z,3.10
2022-09-01T07:45:35.780Z,2.90
2022-09-01T07:52:38.784Z,3.40
2022-09-01T07:56:02.187Z,3.20
2022-09-01T07:59:22.740Z,3.50
2022-09-01T08:02:46.680Z,3.70
2022-09-01T08:06:13.827Z,3.70
2022-09-01T08:09:38.230Z,3.40
2022-09-01T08:13:05.733Z,3.40
2022-09-01T08:20:21.778Z,3.20
2022-09-01T08:23:44.238Z,3.10
2022-09-01T08:27:06.779Z,2.70
2022-09-01T08:30:28.515Z,2.60
2022-09-01T08:33:53.811Z,2.50
2022-09-01T08:37:22.813Z,2.80
2022-09-01T08:41:04.864Z,2.60
2022-09-01T08:44:54.846Z,2.90
2022-09-01T08:52:35.866Z,3.20
2022-09-01T08:56:09.875Z,2.60
2022-09-01T08:59:38.265Z,2.70
2022-09-01T09:03:40.446Z,2.80
2022-09-01T09:07:27.033Z,3.00
2022-09-01T09:11:14.909Z,2.90
2022-09-01T09:15:12.138Z,2.20
2022-09-01T09:18:55.641Z,2.50
2022-09-01T09:22:27.032Z,2.40
2022-09-01T09:26:02.320Z,2.10
2022-09-01T09:29:39.094Z,2.20
2022-09-01T09:37:31.045Z,1.90
2022-09-01T09:41:20.309Z,2.00
2022-09-01T09:45:06.072Z,2.70
2022-09-01T09:48:50.687Z,1.80
2022-09-01T09:52:31.190Z,1.80
2022-09-01T09:56:36.118Z,1.90
2022-09-01T10:00:11.374Z,1.80
2022-09-01T10:03:57.190Z,1.80
2022-09-01T10:07:49.089Z,1.70
2022-09-01T10:11:12.233Z,1.70
2022-09-01T10:14:52.364Z,1.60
2022-09-01T10:18:38.385Z,1.60
2022-09-01T10:22:15.190Z,1.50
2022-09-01T10:25:39.567Z,1.70
2022-09-01T10:29:21.093Z,1.60
2022-09-01T10:32:50.753Z,1.50
2022-09-01T10:36:24.480Z,1.60
2022-09-01T10:40:49.174Z,1.60
2022-09-01T10:44:31.273Z,1.70
2022-09-01T10:47:53.623Z,1.50
2022-09-01T10:51:56.293Z,1.50
2022-09-01T10:55:24.687Z,1.60
2022-09-01T11:02:47.369Z,1.80
2022-09-01T11:07:11.690Z,1.50
2022-09-01T11:11:06.424Z,1.50
2022-09-01T11:14:43.203Z,1.70
2022-09-01T11:18:22.454Z,1.60
2022-09-01T11:22:00.271Z,1.50
2022-09-01T11:26:19.033Z,1.60
2022-09-01T11:30:04.620Z,1.50
2022-09-01T11:33:54.440Z,1.40
2022-09-01T11:37:38.330Z,1.50
2022-09-01T11:41:06.630Z,1.50
2022-09-01T11:44:35.358Z,1.50
2022-09-01T11:48:00.286Z,1.60
2022-09-01T11:51:15.857Z,1.40
2022-09-01T11:54:45.464Z,1.40
2022-09-01T11:58:07.606Z,1.40
2022-09-01T12:01:45.410Z,1.60
2022-09-01T12:05:01.749Z,1.50
2022-09-01T12:08:37.318Z,1.30
2022-09-01T12:11:59.402Z,1.70
2022-09-01T12:15:35.235Z,1.50
2022-09-01T12:19:00.369Z,1.60
2022-09-01T12:22:27.676Z,1.60
2022-09-01T12:25:49.572Z,1.70
2022-09-01T12:29:03.997Z,1.70
2022-09-01T12:32:32.688Z,1.80
2022-09-01T12:35:47.352Z,1.50
2022-09-01T12:39:39.574Z,2.00
2022-09-01T12:43:00.953Z,1.90
2022-09-01T12:46:53.406Z,1.90
2022-09-01T12:50:38.496Z,2.00
2022-09-01T12:54:09.413Z,2.30
2022-09-01T12:57:37.915Z,1.90
2022-09-01T13:01:09.156Z,2.20
2022-09-01T13:04:48.511Z,2.20
2022-09-01T13:08:25.631Z,1.80
2022-09-01T13:12:08.662Z,2.00
2022-09-01T13:15:31.186Z,2.00
2022-09-01T13:19:21.860Z,2.10
2022-09-01T13:22:34.798Z,2.40
2022-09-01T13:26:02.495Z,2.00
2022-09-01T13:29:17.650Z,2.40
2022-09-01T13:33:18.830Z,2.10
2022-09-01T13:40:09.337Z,1.80
2022-09-01T13:51:18.447Z,2.10
2022-09-01T13:54:47.151Z,2.30
2022-09-01T13:58:08.888Z,2.40
2022-09-01T14:01:23.396Z,2.50
2022-09-01T14:04:51.660Z,2.10
2022-09-01T14:08:29.639Z,2.40
2022-09-01T14:12:00.843Z,2.40
2022-09-01T14:15:23.726Z,2.10
2022-09-01T14:18:48.080Z,2.20
2022-09-01T14:22:12.793Z,2.40
2022-09-01T14:25:41.838Z,2.70
2022-09-01T14:29:16.682Z,2.50
2022-09-01T14:32:39.429Z,2.30
2022-09-01T14:36:14.498Z,2.40
2022-09-01T14:39:49.683Z,2.30
2022-09-01T14:43:29.730Z,2.40
2022-09-01T14:46:51.353Z,2.40
2022-09-01T14:50:19.964Z,2.20
2022-09-01T14:53:53.753Z,2.60
2022-09-01T14:57:36.918Z,2.60
2022-09-01T15:01:32.659Z,2.60
2022-09-01T15:04:52.344Z,2.40
2022-09-01T15:08:19.984Z,2.50
2022-09-01T15:11:44.174Z,2.50
2022-09-01T15:15:08.060Z,2.50
2022-09-01T15:18:22.398Z,2.60
2022-09-01T15:21:43.816Z,2.70
2022-09-01T15:25:05.019Z,2.20
2022-09-01T15:28:20.710Z,2.80
2022-09-01T15:31:49.027Z,2.60
2022-09-01T15:35:03.399Z,2.50
2022-09-01T15:38:37.848Z,2.40
2022-09-01T15:42:08.978Z,2.20
2022-09-01T15:45:30.312Z,2.40
2022-09-01T15:48:52.493Z,2.40
2022-09-01T15:52:13.957Z,2.50
2022-09-01T15:55:37.903Z,3.10
2022-09-01T15:59:01.472Z,2.70
2022-09-01T16:02:32.967Z,3.10
2022-09-01T16:05:54.055Z,2.70
2022-09-01T16:09:29.953Z,3.10
2022-09-01T16:13:04.914Z,2.80
2022-09-01T16:16:56.550Z,2.70
2022-09-01T16:20:23.495Z,3.00
2022-09-01T16:24:05.156Z,2.80
2022-09-01T16:27:31.051Z,2.80
2022-09-01T16:30:56.293Z,2.90
2022-09-01T16:34:28.340Z,2.90
2022-09-01T16:41:59.326Z,2.90
2022-09-01T16:45:24.354Z,2.90
2022-09-01T16:49:03.130Z,3.30
2022-09-01T16:52:34.989Z,3.40
2022-09-01T16:56:14.499Z,3.10
2022-09-01T17:03:21.327Z,3.00
2022-09-01T17:07:15.323Z,2.90
2022-09-01T17:11:04.366Z,3.10
2022-09-01T17:14:49.164Z,2.80
2022-09-01T17:18:22.506Z,3.30
2022-09-01T17:21:41.904Z,3.20
2022-09-01T17:24:56.103Z,2.90
2022-09-01T17:28:09.916Z,3.00
2022-09-01T17:31:42.132Z,3.10
2022-09-01T17:35:03.847Z,3.40
2022-09-01T17:38:28.716Z,3.20
2022-09-01T17:41:43.323Z,3.10
2022-09-01T17:44:56.553Z,3.20
2022-09-01T17:48:15.301Z,3.40
2022-09-01T17:51:37.237Z,3.20
2022-09-01T17:54:52.555Z,3.00
2022-09-01T17:58:08.171Z,3.30
2022-09-01T18:01:25.749Z,3.20
2022-09-01T18:04:57.508Z,3.40
2022-09-01T18:08:30.078Z,3.10
2022-09-01T18:11:48.944Z,3.20
2022-09-01T18:15:08.786Z,3.40
2022-09-01T18:18:36.967Z,3.20
2022-09-01T18:21:54.485Z,3.00
2022-09-01T18:25:07.837Z,3.20
2022-09-01T18:28:17.162Z,2.90
2022-09-01T18:31:52.762Z,3.20
2022-09-01T18:35:27.094Z,3.20
2022-09-01T18:38:50.191Z,3.10
2022-09-01T18:42:15.986Z,3.10
2022-09-01T18:45:38.758Z,3.50
2022-09-01T18:49:02.138Z,3.50
2022-09-01T18:52:32.471Z,3.40
2022-09-01T18:55:55.026Z,3.50
2022-09-01T18:59:24.366Z,3.10
2022-09-01T19:02:52.514Z,3.60
2022-09-01T19:06:38.645Z,3.20
2022-09-01T19:09:59.079Z,3.30
2022-09-01T19:13:19.013Z,3.50
2022-09-01T19:16:44.470Z,3.30
2022-09-01T19:20:00.315Z,3.50
2022-09-01T19:23:17.894Z,3.20
2022-09-01T19:26:32.405Z,3.30
2022-09-01T19:29:52.533Z,3.60
2022-09-01T19:33:04.158Z,3.20
2022-09-01T19:36:20.270Z,2.90
2022-09-01T19:39:33.942Z,3.40
2022-09-01T19:42:48.926Z,3.10
2022-09-01T19:46:12.832Z,3.20
2022-09-01T19:49:39.075Z,3.20
2022-09-01T19:52:57.017Z,3.10
2022-09-01T19:56:15.429Z,3.10
2022-09-01T19:59:31.798Z,3.40
2022-09-01T20:02:47.950Z,3.10
2022-09-01T20:06:02.973Z,3.00
2022-09-01T20:09:19.154Z,3.20
2022-09-01T20:12:40.159Z,3.10
2022-09-01T20:15:55.697Z,3.10
2022-09-01T20:19:12.678Z,3.30
2022-09-01T20:22:40.466Z,2.90
2022-09-01T20:25:55.585Z,3.00
2022-09-01T20:29:13.965Z,2.90
2022-09-01T20:32:32.139Z,2.50
2022-09-01T20:35:49.579Z,2.00
2022-09-01T20:39:21.386Z,2.00
2022-09-01T20:42:38.769Z,1.80
2022-09-01T20:45:47.015Z,1.90
2022-09-01T20:48:55.165Z,1.90
2022-09-01T20:52:13.249Z,1.80
2022-09-01T20:55:29.694Z,1.90
2022-09-01T20:58:45.964Z,1.80
2022-09-01T21:02:06.054Z,1.60
2022-09-01T21:05:41.239Z,1.70
2022-09-01T21:08:59.479Z,1.60
2022-09-01T21:12:18.976Z,1.60
2022-09-01T21:15:43.467Z,1.70
2022-09-01T21:19:05.118Z,1.60
2022-09-01T21:22:21.925Z,1.50
2022-09-01T21:25:30.965Z,1.80
2022-09-01T21:28:39.538Z,1.60
2022-09-01T21:31:48.660Z,1.80
2022-09-01T21:34:57.755Z,1.70
2022-09-01T21:38:05.854Z,2.00
2022-09-01T21:41:14.970Z,1.60
2022-09-01T21:44:23.411Z,1.80
2022-09-01T21:47:33.961Z,1.60
2022-09-01T21:50:42.421Z,1.80
2022-09-01T21:53:50.534Z,1.60
2022-09-01T21:56:58.495Z,1.70
2022-09-01T22:00:10.059Z,1.60
2022-09-01T22:03:20.246Z,1.80
2022-09-01T22:06:29.951Z,1.70
2022-09-01T22:12:48.188Z,1.50
2022-09-01T22:15:58.326Z,1.40
2022-09-01T22:19:06.902Z,1.60
2022-09-01T22:22:16.560Z,1.90
2022-09-01T22:25:25.968Z,1.40
2022-09-01T22:28:33.950Z,1.50
2022-09-01T22:31:43.441Z,1.50
2022-09-01T22:34:51.375Z,1.80
2022-09-01T22:37:59.556Z,1.50
2022-09-01T22:41:07.532Z,1.50
2022-09-01T22:44:16.252Z,1.80
2022-09-01T22:47:24.542Z,1.50
2022-09-01T22:50:32.520Z,1.50
2022-09-01T22:53:42.329Z,1.60
2022-09-01T22:59:58.206Z,1.50
2022-09-01T23:03:07.553Z,1.60
2022-09-01T23:06:25.176Z,1.40
2022-09-01T23:09:36.996Z,1.50
2022-09-01T23:12:44.795Z,1.50
2022-09-01T23:15:52.712Z,1.70
2022-09-01T23:19:01.419Z,1.60
2022-09-01T23:22:09.522Z,1.50
2022-09-01T23:25:19.376Z,1.70
2022-09-01T23:28:28.572Z,1.60
2022-09-01T23:31:39.635Z,1.60
2022-09-01T23:34:48.022Z,1.40
2022-09-01T23:37:56.186Z,1.40
2022-09-01T23:41:08.551Z,1.60
2022-09-01T23:44:17.037Z,1.40
2022-09-01T23:47:25.321Z,1.30
2022-09-01T23:50:34.782Z,1.50
2022-09-01T23:53:44.121Z,1.40
2022-09-01T23:56:52.156Z,1.40
